sensor_id;sensor_type;location;lat;lon;timestamp;temperature;humidity
44487;DHT22;30191;50.908;6.962;2022-08-19T00:00:45;22.20;99.90
44487;DHT22;30191;50.908;6.962;2022-08-19T00:03:10;22.20;99.90
44487;DHT22;30191;50.908;6.962;2022-08-19T00:05:36;22.10;99.90
44487;DHT22;30191;50.908;6.962;2022-08-19T00:08:02;22.10;99.90
44487;DHT22;30191;50.908;6.962;2022-08-19T00:10:28;22.10;99.90
44487;DHT22;30191;50.908;6.962;2022-08-19T00:12:54;22.10;99.90
44487;DHT22;30191;50.908;6.962;2022-08-19T00:15:21;22.10;99.90
44487;DHT22;30191;50.908;6.962;2022-08-19T00:17:47;22.00;99.90
44487;DHT22;30191;50.908;6.962;2022-08-19T00:20:16;22.00;99.90
44487;DHT22;30191;50.908;6.962;2022-08-19T00:22:44;22.00;99.90
44487;DHT22;30191;50.908;6.962;2022-08-19T00:25:10;22.00;99.90
44487;DHT22;30191;50.908;6.962;2022-08-19T00:27:35;21.90;99.90
44487;DHT22;30191;50.908;6.962;2022-08-19T00:30:03;21.90;99.90
44487;DHT22;30191;50.908;6.962;2022-08-19T00:32:29;21.80;99.90
44487;DHT22;30191;50.908;6.962;2022-08-19T00:34:55;21.80;99.90
44487;DHT22;30191;50.908;6.962;2022-08-19T00:37:22;21.70;99.90
44487;DHT22;30191;50.908;6.962;2022-08-19T00:39:49;21.70;99.90
44487;DHT22;30191;50.908;6.962;2022-08-19T00:42:17;21.60;99.90
44487;DHT22;30191;50.908;6.962;2022-08-19T00:44:42;21.70;99.90
44487;DHT22;30191;50.908;6.962;2022-08-19T00:47:08;21.60;99.90
44487;DHT22;30191;50.908;6.962;2022-08-19T00:49:45;21.60;99.90
44487;DHT22;30191;50.908;6.962;2022-08-19T00:52:17;21.60;99.90
44487;DHT22;30191;50.908;6.962;2022-08-19T00:54:45;21.50;99.90
44487;DHT22;30191;50.908;6.962;2022-08-19T00:57:15;21.50;99.90
44487;DHT22;30191;50.908;6.962;2022-08-19T00:59:45;21.50;99.90
44487;DHT22;30191;50.908;6.962;2022-08-19T01:02:16;21.60;99.90
44487;DHT22;30191;50.908;6.962;2022-08-19T01:04:42;21.50;99.90
44487;DHT22;30191;50.908;6.962;2022-08-19T01:07:08;21.50;99.90
44487;DHT22;30191;50.908;6.962;2022-08-19T01:09:33;21.50;99.90
44487;DHT22;30191;50.908;6.962;2022-08-19T01:12:00;21.40;99.90
44487;DHT22;30191;50.908;6.962;2022-08-19T01:14:27;21.40;99.90
44487;DHT22;30191;50.908;6.962;2022-08-19T01:16:54;21.30;99.90
44487;DHT22;30191;50.908;6.962;2022-08-19T01:19:27;21.30;99.90
44487;DHT22;30191;50.908;6.962;2022-08-19T01:22:16;21.30;99.90
44487;DHT22;30191;50.908;6.962;2022-08-19T01:24:44;21.20;99.90
44487;DHT22;30191;50.908;6.962;2022-08-19T01:27:10;21.10;99.90
44487;DHT22;30191;50.908;6.962;2022-08-19T01:29:39;21.20;99.90
44487;DHT22;30191;50.908;6.962;2022-08-19T01:32:07;21.30;99.90
44487;DHT22;30191;50.908;6.962;2022-08-19T01:34:33;21.20;99.90
44487;DHT22;30191;50.908;6.962;2022-08-19T01:36:59;21.10;99.90
44487;DHT22;30191;50.908;6.962;2022-08-19T01:39:27;21.10;99.90
44487;DHT22;30191;50.908;6.962;2022-08-19T01:41:53;21.00;99.90
44487;DHT22;30191;50.908;6.962;2022-08-19T01:44:22;20.90;99.90
44487;DHT22;30191;50.908;6.962;2022-08-19T01:46:50;20.90;99.90
44487;DHT22;30191;50.908;6.962;2022-08-19T01:49:21;20.90;99.90
44487;DHT22;30191;50.908;6.962;2022-08-19T01:51:47;20.90;99.90
44487;DHT22;30191;50.908;6.962;2022-08-19T01:54:14;20.90;99.90
44487;DHT22;30191;50.908;6.962;2022-08-19T01:56:40;20.90;99.90
44487;DHT22;30191;50.908;6.962;2022-08-19T01:59:13;20.90;99.90
44487;DHT22;30191;50.908;6.962;2022-08-19T02:01:40;20.90;99.90
44487;DHT22;30191;50.908;6.962;2022-08-19T02:04:07;20.90;99.90
44487;DHT22;30191;50.908;6.962;2022-08-19T02:06:33;20.90;99.90
44487;DHT22;30191;50.908;6.962;2022-08-19T02:08:59;21.00;99.90
44487;DHT22;30191;50.908;6.962;2022-08-19T02:11:28;21.00;99.90
44487;DHT22;30191;50.908;6.962;2022-08-19T02:13:57;21.00;99.90
44487;DHT22;30191;50.908;6.962;2022-08-19T02:16:23;21.00;99.90
44487;DHT22;30191;50.908;6.962;2022-08-19T02:18:50;20.90;99.90
44487;DHT22;30191;50.908;6.962;2022-08-19T02:21:21;20.90;99.90
44487;DHT22;30191;50.908;6.962;2022-08-19T02:23:47;20.90;99.90
44487;DHT22;30191;50.908;6.962;2022-08-19T02:26:13;20.90;99.90
44487;DHT22;30191;50.908;6.962;2022-08-19T02:28:40;20.80;99.90
44487;DHT22;30191;50.908;6.962;2022-08-19T02:31:15;20.80;99.90
44487;DHT22;30191;50.908;6.962;2022-08-19T02:33:41;20.70;99.90
44487;DHT22;30191;50.908;6.962;2022-08-19T02:36:08;20.70;99.90
44487;DHT22;30191;50.908;6.962;2022-08-19T02:38:35;20.70;99.90
44487;DHT22;30191;50.908;6.962;2022-08-19T02:41:05;20.80;99.90
44487;DHT22;30191;50.908;6.962;2022-08-19T02:43:33;20.80;99.90
44487;DHT22;30191;50.908;6.962;2022-08-19T02:46:15;20.90;99.90
44487;DHT22;30191;50.908;6.962;2022-08-19T02:48:49;20.90;99.90
44487;DHT22;30191;50.908;6.962;2022-08-19T02:51:20;21.00;99.90
44487;DHT22;30191;50.908;6.962;2022-08-19T02:53:46;20.90;99.90
44487;DHT22;30191;50.908;6.962;2022-08-19T02:56:12;20.90;99.90
44487;DHT22;30191;50.908;6.962;2022-08-19T02:58:38;20.90;99.90
44487;DHT22;30191;50.908;6.962;2022-08-19T03:01:04;20.80;99.90
44487;DHT22;30191;50.908;6.962;2022-08-19T03:03:29;20.70;99.90
44487;DHT22;30191;50.908;6.962;2022-08-19T03:06:12;20.70;99.90
44487;DHT22;30191;50.908;6.962;2022-08-19T03:08:39;20.70;99.90
44487;DHT22;30191;50.908;6.962;2022-08-19T03:11:06;20.70;99.90
44487;DHT22;30191;50.908;6.962;2022-08-19T03:13:32;20.70;99.90
44487;DHT22;30191;50.908;6.962;2022-08-19T03:15:58;20.70;99.90
44487;DHT22;30191;50.908;6.962;2022-08-19T03:18:23;20.70;99.90
44487;DHT22;30191;50.908;6.962;2022-08-19T03:20:51;20.70;99.90
44487;DHT22;30191;50.908;6.962;2022-08-19T03:23:19;20.80;99.90
44487;DHT22;30191;50.908;6.962;2022-08-19T03:25:46;20.70;99.90
44487;DHT22;30191;50.908;6.962;2022-08-19T03:28:14;20.60;99.90
44487;DHT22;30191;50.908;6.962;2022-08-19T03:30:41;20.60;99.90
44487;DHT22;30191;50.908;6.962;2022-08-19T03:33:08;20.60;99.90
44487;DHT22;30191;50.908;6.962;2022-08-19T03:35:34;20.60;99.90
44487;DHT22;30191;50.908;6.962;2022-08-19T03:38:04;20.50;99.90
44487;DHT22;30191;50.908;6.962;2022-08-19T03:40:31;20.50;99.90
44487;DHT22;30191;50.908;6.962;2022-08-19T03:42:57;20.40;99.90
44487;DHT22;30191;50.908;6.962;2022-08-19T03:45:23;20.50;99.90
44487;DHT22;30191;50.908;6.962;2022-08-19T03:47:49;20.40;99.90
44487;DHT22;30191;50.908;6.962;2022-08-19T03:50:15;20.40;99.90
44487;DHT22;30191;50.908;6.962;2022-08-19T03:52:41;20.40;99.90
44487;DHT22;30191;50.908;6.962;2022-08-19T03:55:08;20.40;99.90
44487;DHT22;30191;50.908;6.962;2022-08-19T03:57:34;20.50;99.90
44487;DHT22;30191;50.908;6.962;2022-08-19T04:00:00;20.50;99.90
44487;DHT22;30191;50.908;6.962;2022-08-19T04:02:26;20.50;99.90
44487;DHT22;30191;50.908;6.962;2022-08-19T04:04:53;20.50;99.90
44487;DHT22;30191;50.908;6.962;2022-08-19T04:07:19;20.40;99.90
44487;DHT22;30191;50.908;6.962;2022-08-19T04:09:47;20.40;99.90
44487;DHT22;30191;50.908;6.962;2022-08-19T04:12:12;20.30;99.90
44487;DHT22;30191;50.908;6.962;2022-08-19T04:14:39;20.30;99.90
44487;DHT22;30191;50.908;6.962;2022-08-19T04:17:05;20.20;99.90
44487;DHT22;30191;50.908;6.962;2022-08-19T04:19:31;20.20;99.90
44487;DHT22;30191;50.908;6.962;2022-08-19T04:21:57;20.20;99.90
44487;DHT22;30191;50.908;6.962;2022-08-19T04:24:24;20.20;99.90
44487;DHT22;30191;50.908;6.962;2022-08-19T04:26:50;20.20;99.90
44487;DHT22;30191;50.908;6.962;2022-08-19T04:29:24;20.10;99.90
44487;DHT22;30191;50.908;6.962;2022-08-19T04:31:53;20.10;99.90
44487;DHT22;30191;50.908;6.962;2022-08-19T04:34:22;20.00;99.90
44487;DHT22;30191;50.908;6.962;2022-08-19T04:36:49;20.20;99.90
44487;DHT22;30191;50.908;6.962;2022-08-19T04:39:18;20.20;99.90
44487;DHT22;30191;50.908;6.962;2022-08-19T04:41:45;20.20;99.90
44487;DHT22;30191;50.908;6.962;2022-08-19T04:44:34;20.20;99.90
44487;DHT22;30191;50.908;6.962;2022-08-19T04:47:01;20.20;99.90
44487;DHT22;30191;50.908;6.962;2022-08-19T04:49:30;20.20;99.90
44487;DHT22;30191;50.908;6.962;2022-08-19T04:51:56;20.40;99.90
44487;DHT22;30191;50.908;6.962;2022-08-19T04:54:23;20.40;99.90
44487;DHT22;30191;50.908;6.962;2022-08-19T04:56:54;20.40;99.90
44487;DHT22;30191;50.908;6.962;2022-08-19T04:59:20;20.40;99.90
44487;DHT22;30191;50.908;6.962;2022-08-19T05:01:47;20.30;99.90
44487;DHT22;30191;50.908;6.962;2022-08-19T05:04:16;20.30;99.90
44487;DHT22;30191;50.908;6.962;2022-08-19T05:06:42;20.30;99.90
44487;DHT22;30191;50.908;6.962;2022-08-19T05:09:08;20.20;99.90
44487;DHT22;30191;50.908;6.962;2022-08-19T05:11:36;20.30;99.90
44487;DHT22;30191;50.908;6.962;2022-08-19T05:14:06;20.30;99.90
44487;DHT22;30191;50.908;6.962;2022-08-19T05:16:32;20.30;99.90
44487;DHT22;30191;50.908;6.962;2022-08-19T05:18:58;20.30;99.90
44487;DHT22;30191;50.908;6.962;2022-08-19T05:21:43;20.20;99.90
44487;DHT22;30191;50.908;6.962;2022-08-19T05:24:28;20.20;99.90
44487;DHT22;30191;50.908;6.962;2022-08-19T05:26:55;20.10;99.90
44487;DHT22;30191;50.908;6.962;2022-08-19T05:29:26;20.20;99.90
44487;DHT22;30191;50.908;6.962;2022-08-19T05:31:53;20.20;99.90
44487;DHT22;30191;50.908;6.962;2022-08-19T05:34:21;20.30;99.90
44487;DHT22;30191;50.908;6.962;2022-08-19T05:36:48;20.30;99.90
44487;DHT22;30191;50.908;6.962;2022-08-19T05:39:19;20.20;99.90
44487;DHT22;30191;50.908;6.962;2022-08-19T05:41:51;20.10;99.90
44487;DHT22;30191;50.908;6.962;2022-08-19T05:44:19;20.20;99.90
44487;DHT22;30191;50.908;6.962;2022-08-19T05:46:45;20.20;99.90
44487;DHT22;30191;50.908;6.962;2022-08-19T05:49:13;20.20;99.90
44487;DHT22;30191;50.908;6.962;2022-08-19T05:51:40;20.20;99.90
44487;DHT22;30191;50.908;6.962;2022-08-19T05:54:06;20.30;99.90
44487;DHT22;30191;50.908;6.962;2022-08-19T05:56:34;20.30;99.90
44487;DHT22;30191;50.908;6.962;2022-08-19T05:59:07;20.20;99.90
44487;DHT22;30191;50.908;6.962;2022-08-19T06:01:35;20.20;99.90
44487;DHT22;30191;50.908;6.962;2022-08-19T06:04:01;20.20;99.90
44487;DHT22;30191;50.908;6.962;2022-08-19T06:06:28;20.00;99.90
44487;DHT22;30191;50.908;6.962;2022-08-19T06:08:54;20.10;99.90
44487;DHT22;30191;50.908;6.962;2022-08-19T06:11:34;20.00;99.90
44487;DHT22;30191;50.908;6.962;2022-08-19T06:14:08;20.10;99.90
44487;DHT22;30191;50.908;6.962;2022-08-19T06:16:39;20.10;99.90
44487;DHT22;30191;50.908;6.962;2022-08-19T06:19:09;20.00;99.90
44487;DHT22;30191;50.908;6.962;2022-08-19T06:21:37;20.00;99.90
44487;DHT22;30191;50.908;6.962;2022-08-19T06:24:08;20.00;99.90
44487;DHT22;30191;50.908;6.962;2022-08-19T06:26:36;20.10;99.90
44487;DHT22;30191;50.908;6.962;2022-08-19T06:29:04;20.00;99.90
44487;DHT22;30191;50.908;6.962;2022-08-19T06:31:33;20.00;99.90
44487;DHT22;30191;50.908;6.962;2022-08-19T06:34:05;20.00;99.90
44487;DHT22;30191;50.908;6.962;2022-08-19T06:36:36;20.00;99.90
44487;DHT22;30191;50.908;6.962;2022-08-19T06:39:07;20.00;99.90
44487;DHT22;30191;50.908;6.962;2022-08-19T06:41:43;20.10;99.90
44487;DHT22;30191;50.908;6.962;2022-08-19T06:44:09;20.10;99.90
44487;DHT22;30191;50.908;6.962;2022-08-19T06:46:36;20.20;99.90
44487;DHT22;30191;50.908;6.962;2022-08-19T06:49:02;20.30;99.90
44487;DHT22;30191;50.908;6.962;2022-08-19T06:51:28;20.30;99.90
44487;DHT22;30191;50.908;6.962;2022-08-19T06:53:55;20.40;99.90
44487;DHT22;30191;50.908;6.962;2022-08-19T06:56:26;20.50;99.90
44487;DHT22;30191;50.908;6.962;2022-08-19T06:58:58;20.60;99.90
44487;DHT22;30191;50.908;6.962;2022-08-19T07:01:23;20.60;99.90
44487;DHT22;30191;50.908;6.962;2022-08-19T07:03:49;20.70;99.90
44487;DHT22;30191;50.908;6.962;2022-08-19T07:06:16;20.70;99.90
44487;DHT22;30191;50.908;6.962;2022-08-19T07:08:44;20.70;99.90
44487;DHT22;30191;50.908;6.962;2022-08-19T07:11:13;20.80;99.90
44487;DHT22;30191;50.908;6.962;2022-08-19T07:13:40;20.90;99.90
44487;DHT22;30191;50.908;6.962;2022-08-19T07:16:11;20.90;99.90
44487;DHT22;30191;50.908;6.962;2022-08-19T07:18:37;20.90;99.90
44487;DHT22;30191;50.908;6.962;2022-08-19T07:21:05;21.00;99.90
44487;DHT22;30191;50.908;6.962;2022-08-19T07:23:32;21.00;99.90
44487;DHT22;30191;50.908;6.962;2022-08-19T07:25:57;21.00;99.90
44487;DHT22;30191;50.908;6.962;2022-08-19T07:28:23;21.00;99.90
44487;DHT22;30191;50.908;6.962;2022-08-19T07:30:49;21.10;99.90
44487;DHT22;30191;50.908;6.962;2022-08-19T07:33:15;21.10;99.90
44487;DHT22;30191;50.908;6.962;2022-08-19T07:35:43;21.20;99.90
44487;DHT22;30191;50.908;6.962;2022-08-19T07:38:09;21.20;99.90
44487;DHT22;30191;50.908;6.962;2022-08-19T07:40:35;21.20;99.90
44487;DHT22;30191;50.908;6.962;2022-08-19T07:43:01;21.20;99.90
44487;DHT22;30191;50.908;6.962;2022-08-19T07:45:27;21.20;99.90
44487;DHT22;30191;50.908;6.962;2022-08-19T07:47:54;21.20;99.90
44487;DHT22;30191;50.908;6.962;2022-08-19T07:50:20;21.10;99.90
44487;DHT22;30191;50.908;6.962;2022-08-19T07:52:48;21.10;99.90
44487;DHT22;30191;50.908;6.962;2022-08-19T07:55:18;21.20;99.90
44487;DHT22;30191;50.908;6.962;2022-08-19T07:57:43;21.20;99.90
44487;DHT22;30191;50.908;6.962;2022-08-19T08:00:09;21.10;99.90
44487;DHT22;30191;50.908;6.962;2022-08-19T08:02:35;21.20;99.90
44487;DHT22;30191;50.908;6.962;2022-08-19T08:05:00;21.20;99.90
44487;DHT22;30191;50.908;6.962;2022-08-19T08:07:44;21.20;99.90
44487;DHT22;30191;50.908;6.962;2022-08-19T08:10:29;21.40;99.90
44487;DHT22;30191;50.908;6.962;2022-08-19T08:12:54;21.60;99.90
44487;DHT22;30191;50.908;6.962;2022-08-19T08:15:20;21.80;99.90
44487;DHT22;30191;50.908;6.962;2022-08-19T08:17:46;21.90;99.90
44487;DHT22;30191;50.908;6.962;2022-08-19T08:20:13;22.10;99.90
44487;DHT22;30191;50.908;6.962;2022-08-19T08:22:44;22.20;99.90
44487;DHT22;30191;50.908;6.962;2022-08-19T08:25:28;22.30;99.90
44487;DHT22;30191;50.908;6.962;2022-08-19T08:27:55;22.30;99.90
44487;DHT22;30191;50.908;6.962;2022-08-19T08:30:24;22.40;99.90
44487;DHT22;30191;50.908;6.962;2022-08-19T08:32:50;22.40;99.90
44487;DHT22;30191;50.908;6.962;2022-08-19T08:35:19;22.60;99.90
44487;DHT22;30191;50.908;6.962;2022-08-19T08:37:47;22.60;99.90
44487;DHT22;30191;50.908;6.962;2022-08-19T08:40:45;22.70;99.90
44487;DHT22;30191;50.908;6.962;2022-08-19T08:45:58;22.80;99.90
44487;DHT22;30191;50.908;6.962;2022-08-19T08:48:38;22.80;99.90
44487;DHT22;30191;50.908;6.962;2022-08-19T08:51:10;22.80;99.90
44487;DHT22;30191;50.908;6.962;2022-08-19T08:53:38;22.80;99.90
44487;DHT22;30191;50.908;6.962;2022-08-19T08:56:06;22.80;99.90
44487;DHT22;30191;50.908;6.962;2022-08-19T08:58:36;22.80;99.90
44487;DHT22;30191;50.908;6.962;2022-08-19T09:01:09;22.80;99.90
44487;DHT22;30191;50.908;6.962;2022-08-19T09:03:37;22.80;99.90
44487;DHT22;30191;50.908;6.962;2022-08-19T09:06:14;22.80;99.90
44487;DHT22;30191;50.908;6.962;2022-08-19T09:16:46;23.00;99.90
44487;DHT22;30191;50.908;6.962;2022-08-19T09:19:11;23.10;99.90
44487;DHT22;30191;50.908;6.962;2022-08-19T09:21:37;23.10;99.90
44487;DHT22;30191;50.908;6.962;2022-08-19T09:24:04;23.10;99.90
44487;DHT22;30191;50.908;6.962;2022-08-19T09:26:31;23.10;99.90
44487;DHT22;30191;50.908;6.962;2022-08-19T09:28:58;23.10;99.90
44487;DHT22;30191;50.908;6.962;2022-08-19T09:31:27;23.10;99.90
44487;DHT22;30191;50.908;6.962;2022-08-19T09:33:54;23.20;99.90
44487;DHT22;30191;50.908;6.962;2022-08-19T09:36:24;23.20;99.90
44487;DHT22;30191;50.908;6.962;2022-08-19T09:38:51;23.30;99.90
44487;DHT22;30191;50.908;6.962;2022-08-19T09:41:22;23.30;99.90
44487;DHT22;30191;50.908;6.962;2022-08-19T09:43:50;23.30;99.90
44487;DHT22;30191;50.908;6.962;2022-08-19T09:46:22;23.40;99.90
44487;DHT22;30191;50.908;6.962;2022-08-19T09:48:49;23.40;99.90
44487;DHT22;30191;50.908;6.962;2022-08-19T09:51:20;23.50;99.90
44487;DHT22;30191;50.908;6.962;2022-08-19T09:53:47;23.50;99.90
44487;DHT22;30191;50.908;6.962;2022-08-19T09:56:17;23.50;99.90
44487;DHT22;30191;50.908;6.962;2022-08-19T09:58:43;23.60;99.90
44487;DHT22;30191;50.908;6.962;2022-08-19T10:01:16;23.60;99.90
44487;DHT22;30191;50.908;6.962;2022-08-19T10:03:43;23.70;99.90
44487;DHT22;30191;50.908;6.962;2022-08-19T10:06:08;23.70;99.90
44487;DHT22;30191;50.908;6.962;2022-08-19T10:08:36;23.70;99.90
44487;DHT22;30191;50.908;6.962;2022-08-19T10:11:04;23.70;99.90
44487;DHT22;30191;50.908;6.962;2022-08-19T10:13:31;23.80;99.90
44487;DHT22;30191;50.908;6.962;2022-08-19T10:16:06;23.70;99.90
44487;DHT22;30191;50.908;6.962;2022-08-19T10:18:34;23.70;99.90
44487;DHT22;30191;50.908;6.962;2022-08-19T10:21:07;23.90;99.90
44487;DHT22;30191;50.908;6.962;2022-08-19T10:23:38;23.90;99.90
44487;DHT22;30191;50.908;6.962;2022-08-19T10:26:06;24.00;99.90
44487;DHT22;30191;50.908;6.962;2022-08-19T10:28:36;23.90;99.90
44487;DHT22;30191;50.908;6.962;2022-08-19T10:31:06;23.90;99.90
44487;DHT22;30191;50.908;6.962;2022-08-19T10:33:33;24.00;99.90
44487;DHT22;30191;50.908;6.962;2022-08-19T10:36:01;24.10;99.90
44487;DHT22;30191;50.908;6.962;2022-08-19T10:38:26;24.00;99.90
44487;DHT22;30191;50.908;6.962;2022-08-19T10:40:54;23.90;99.90
44487;DHT22;30191;50.908;6.962;2022-08-19T10:43:20;24.00;99.90
44487;DHT22;30191;50.908;6.962;2022-08-19T10:45:52;24.00;99.90
44487;DHT22;30191;50.908;6.962;2022-08-19T10:48:20;24.20;99.90
44487;DHT22;30191;50.908;6.962;2022-08-19T10:50:46;24.40;99.90
44487;DHT22;30191;50.908;6.962;2022-08-19T10:53:30;24.60;99.90
44487;DHT22;30191;50.908;6.962;2022-08-19T10:55:55;24.60;99.90
44487;DHT22;30191;50.908;6.962;2022-08-19T10:58:40;24.50;99.90
44487;DHT22;30191;50.908;6.962;2022-08-19T11:01:07;24.50;99.90
44487;DHT22;30191;50.908;6.962;2022-08-19T11:03:32;24.30;99.90
44487;DHT22;30191;50.908;6.962;2022-08-19T11:06:05;24.40;99.90
44487;DHT22;30191;50.908;6.962;2022-08-19T11:08:32;24.30;99.90
44487;DHT22;30191;50.908;6.962;2022-08-19T11:10:59;24.40;99.90
44487;DHT22;30191;50.908;6.962;2022-08-19T11:13:31;24.40;99.90
44487;DHT22;30191;50.908;6.962;2022-08-19T11:16:00;24.50;99.90
44487;DHT22;30191;50.908;6.962;2022-08-19T11:18:26;24.60;99.90
44487;DHT22;30191;50.908;6.962;2022-08-19T11:20:52;24.70;99.90
44487;DHT22;30191;50.908;6.962;2022-08-19T11:23:19;24.70;99.90
44487;DHT22;30191;50.908;6.962;2022-08-19T11:25:45;24.60;99.90
44487;DHT22;30191;50.908;6.962;2022-08-19T11:28:11;24.50;99.90
44487;DHT22;30191;50.908;6.962;2022-08-19T11:30:38;24.50;99.90
44487;DHT22;30191;50.908;6.962;2022-08-19T11:33:04;24.50;99.90
44487;DHT22;30191;50.908;6.962;2022-08-19T11:35:30;24.70;99.90
44487;DHT22;30191;50.908;6.962;2022-08-19T11:37:56;24.80;99.90
44487;DHT22;30191;50.908;6.962;2022-08-19T11:40:27;25.00;99.90
44487;DHT22;30191;50.908;6.962;2022-08-19T11:42:52;25.00;99.90
44487;DHT22;30191;50.908;6.962;2022-08-19T11:45:22;25.20;99.90
44487;DHT22;30191;50.908;6.962;2022-08-19T11:47:48;25.20;99.90
44487;DHT22;30191;50.908;6.962;2022-08-19T11:50:15;25.20;99.90
44487;DHT22;30191;50.908;6.962;2022-08-19T11:52:42;25.20;99.90
44487;DHT22;30191;50.908;6.962;2022-08-19T11:55:09;25.20;99.90
44487;DHT22;30191;50.908;6.962;2022-08-19T11:57:35;25.20;99.90
44487;DHT22;30191;50.908;6.962;2022-08-19T12:00:00;25.20;99.90
44487;DHT22;30191;50.908;6.962;2022-08-19T12:02:27;25.30;99.90
44487;DHT22;30191;50.908;6.962;2022-08-19T12:04:52;25.20;99.90
44487;DHT22;30191;50.908;6.962;2022-08-19T12:07:19;25.20;99.90
44487;DHT22;30191;50.908;6.962;2022-08-19T12:09:44;25.30;99.90
44487;DHT22;30191;50.908;6.962;2022-08-19T12:12:10;25.30;99.90
44487;DHT22;30191;50.908;6.962;2022-08-19T12:14:36;25.30;99.90
44487;DHT22;30191;50.908;6.962;2022-08-19T12:17:02;25.40;99.90
44487;DHT22;30191;50.908;6.962;2022-08-19T12:19:30;25.60;99.90
44487;DHT22;30191;50.908;6.962;2022-08-19T12:21:59;25.70;99.90
44487;DHT22;30191;50.908;6.962;2022-08-19T12:24:26;25.70;99.90
44487;DHT22;30191;50.908;6.962;2022-08-19T12:26:52;25.60;99.90
44487;DHT22;30191;50.908;6.962;2022-08-19T12:29:21;25.60;99.90
44487;DHT22;30191;50.908;6.962;2022-08-19T12:31:48;25.80;99.90
44487;DHT22;30191;50.908;6.962;2022-08-19T12:34:13;25.90;99.90
44487;DHT22;30191;50.908;6.962;2022-08-19T12:36:39;25.80;99.90
44487;DHT22;30191;50.908;6.962;2022-08-19T12:39:05;25.90;99.90
44487;DHT22;30191;50.908;6.962;2022-08-19T12:41:31;26.00;99.90
44487;DHT22;30191;50.908;6.962;2022-08-19T12:43:56;26.10;99.90
44487;DHT22;30191;50.908;6.962;2022-08-19T12:46:23;26.20;99.40
44487;DHT22;30191;50.908;6.962;2022-08-19T12:48:49;26.30;99.40
44487;DHT22;30191;50.908;6.962;2022-08-19T12:51:17;26.50;99.50
44487;DHT22;30191;50.908;6.962;2022-08-19T12:53:45;27.00;99.60
44487;DHT22;30191;50.908;6.962;2022-08-19T12:56:11;27.30;99.30
44487;DHT22;30191;50.908;6.962;2022-08-19T12:58:41;27.20;99.10
44487;DHT22;30191;50.908;6.962;2022-08-19T13:01:11;27.00;99.40
44487;DHT22;30191;50.908;6.962;2022-08-19T13:03:38;27.00;99.70
44487;DHT22;30191;50.908;6.962;2022-08-19T13:06:04;27.00;99.20
44487;DHT22;30191;50.908;6.962;2022-08-19T13:08:29;26.90;99.10
44487;DHT22;30191;50.908;6.962;2022-08-19T13:10:55;26.90;99.30
44487;DHT22;30191;50.908;6.962;2022-08-19T13:13:21;27.00;99.20
44487;DHT22;30191;50.908;6.962;2022-08-19T13:15:47;27.10;99.50
44487;DHT22;30191;50.908;6.962;2022-08-19T13:18:13;27.10;99.60
44487;DHT22;30191;50.908;6.962;2022-08-19T13:20:39;27.30;99.20
44487;DHT22;30191;50.908;6.962;2022-08-19T13:23:06;27.40;99.00
44487;DHT22;30191;50.908;6.962;2022-08-19T13:25:32;27.50;98.30
44487;DHT22;30191;50.908;6.962;2022-08-19T13:27:59;27.50;98.40
44487;DHT22;30191;50.908;6.962;2022-08-19T13:30:25;27.50;97.80
44487;DHT22;30191;50.908;6.962;2022-08-19T13:33:10;27.50;97.80
44487;DHT22;30191;50.908;6.962;2022-08-19T13:35:51;27.50;97.20
44487;DHT22;30191;50.908;6.962;2022-08-19T13:38:23;27.70;97.30
44487;DHT22;30191;50.908;6.962;2022-08-19T13:40:50;27.90;97.30
44487;DHT22;30191;50.908;6.962;2022-08-19T13:43:18;28.40;98.10
44487;DHT22;30191;50.908;6.962;2022-08-19T13:45:44;30.10;95.40
44487;DHT22;30191;50.908;6.962;2022-08-19T13:48:11;32.00;93.50
44487;DHT22;30191;50.908;6.962;2022-08-19T13:50:43;33.50;90.90
44487;DHT22;30191;50.908;6.962;2022-08-19T13:53:10;34.10;87.20
44487;DHT22;30191;50.908;6.962;2022-08-19T13:55:41;34.10;83.80
44487;DHT22;30191;50.908;6.962;2022-08-19T13:58:08;34.60;83.00
44487;DHT22;30191;50.908;6.962;2022-08-19T14:00:37;35.20;80.70
44487;DHT22;30191;50.908;6.962;2022-08-19T14:03:04;35.60;79.50
44487;DHT22;30191;50.908;6.962;2022-08-19T14:05:30;35.80;77.80
44487;DHT22;30191;50.908;6.962;2022-08-19T14:07:57;35.80;77.00
44487;DHT22;30191;50.908;6.962;2022-08-19T14:10:23;35.80;76.40
44487;DHT22;30191;50.908;6.962;2022-08-19T14:12:53;35.90;75.90
44487;DHT22;30191;50.908;6.962;2022-08-19T14:15:21;35.80;75.40
44487;DHT22;30191;50.908;6.962;2022-08-19T14:17:48;36.10;74.10
44487;DHT22;30191;50.908;6.962;2022-08-19T14:20:15;35.70;73.20
44487;DHT22;30191;50.908;6.962;2022-08-19T14:22:41;35.30;74.60
44487;DHT22;30191;50.908;6.962;2022-08-19T14:25:10;35.00;75.80
44487;DHT22;30191;50.908;6.962;2022-08-19T14:27:38;35.30;75.50
44487;DHT22;30191;50.908;6.962;2022-08-19T14:30:06;35.00;75.30
44487;DHT22;30191;50.908;6.962;2022-08-19T14:32:33;35.30;76.00
44487;DHT22;30191;50.908;6.962;2022-08-19T14:34:59;35.40;76.00
44487;DHT22;30191;50.908;6.962;2022-08-19T14:37:25;35.10;75.80
44487;DHT22;30191;50.908;6.962;2022-08-19T14:39:51;34.90;75.40
44487;DHT22;30191;50.908;6.962;2022-08-19T14:42:17;35.00;75.20
44487;DHT22;30191;50.908;6.962;2022-08-19T14:44:43;34.90;75.10
44487;DHT22;30191;50.908;6.962;2022-08-19T14:47:08;35.00;74.20
44487;DHT22;30191;50.908;6.962;2022-08-19T14:49:35;35.20;73.50
44487;DHT22;30191;50.908;6.962;2022-08-19T14:52:01;34.50;74.60
44487;DHT22;30191;50.908;6.962;2022-08-19T14:54:26;34.60;74.40
44487;DHT22;30191;50.908;6.962;2022-08-19T14:56:52;34.60;74.50
44487;DHT22;30191;50.908;6.962;2022-08-19T14:59:18;35.00;74.30
44487;DHT22;30191;50.908;6.962;2022-08-19T15:01:43;35.40;73.50
44487;DHT22;30191;50.908;6.962;2022-08-19T15:04:09;35.90;73.20
44487;DHT22;30191;50.908;6.962;2022-08-19T15:06:35;35.20;73.00
44487;DHT22;30191;50.908;6.962;2022-08-19T15:09:02;34.90;72.80
44487;DHT22;30191;50.908;6.962;2022-08-19T15:11:28;34.70;72.60
44487;DHT22;30191;50.908;6.962;2022-08-19T15:13:56;34.70;72.80
44487;DHT22;30191;50.908;6.962;2022-08-19T15:16:23;35.10;72.40
44487;DHT22;30191;50.908;6.962;2022-08-19T15:18:53;35.30;72.80
44487;DHT22;30191;50.908;6.962;2022-08-19T15:21:20;35.30;72.70
44487;DHT22;30191;50.908;6.962;2022-08-19T15:23:47;35.60;71.40
44487;DHT22;30191;50.908;6.962;2022-08-19T15:26:19;35.50;71.50
44487;DHT22;30191;50.908;6.962;2022-08-19T15:28:46;34.80;71.80
44487;DHT22;30191;50.908;6.962;2022-08-19T15:31:17;33.80;72.10
44487;DHT22;30191;50.908;6.962;2022-08-19T15:33:43;33.20;73.40
44487;DHT22;30191;50.908;6.962;2022-08-19T15:36:10;33.30;73.10
44487;DHT22;30191;50.908;6.962;2022-08-19T15:38:37;33.20;73.20
44487;DHT22;30191;50.908;6.962;2022-08-19T15:41:05;33.00;73.30
44487;DHT22;30191;50.908;6.962;2022-08-19T15:43:59;31.10;74.90
44487;DHT22;30191;50.908;6.962;2022-08-19T15:46:27;30.40;76.50